This is the latest recevied weather packets stored in our database for station/object OK2ZAW-19. If no packets are shown the sender has not sent any weather packets the latest 10 day(s).
| Time | Temp. | Humidity | Pressure | Rain* | Wind** | Luminosity | Snow |
|---|---|---|---|---|---|---|---|
| 1777580138 | 3.33° C | 62% | 1028.6 hPa | - | - | 337 W/m² | - |
| 1777579828 | 3.33° C | 58% | 1028.5 hPa | - | - | 337 W/m² | - |
| 1777579518 | 3.33° C | 58% | 1028.6 hPa | - | - | 336 W/m² | - |
| 1777579209 | 3.33° C | 57% | 1028.5 hPa | - | - | 337 W/m² | - |
| 1777578899 | 3.33° C | 56% | 1028.5 hPa | - | - | 337 W/m² | - |
| 1777578589 | 3.33° C | 53% | 1028.4 hPa | - | - | 337 W/m² | - |
| 1777578279 | 3.33° C | 55% | 1028.3 hPa | - | - | 338 W/m² | - |
| 1777577969 | 3.33° C | 56% | 1028.4 hPa | - | - | 337 W/m² | - |
| 1777577659 | 3.89° C | 52% | 1028.2 hPa | - | - | 338 W/m² | - |
| 1777577349 | 3.89° C | 52% | 1028.2 hPa | - | - | 337 W/m² | - |
| 1777576730 | 3.89° C | 50% | 1028.1 hPa | - | - | 338 W/m² | - |
| 1777576420 | 3.89° C | 51% | 1028.1 hPa | - | - | 337 W/m² | - |
| 1777576110 | 4.44° C | 49% | 1028 hPa | - | - | 337 W/m² | - |
| 1777575800 | 4.44° C | 49% | 1027.9 hPa | - | - | 337 W/m² | - |
| 1777575490 | 4.44° C | 47% | 1027.9 hPa | - | - | 337 W/m² | - |
| 1777575180 | 4.44° C | 46% | 1027.8 hPa | - | - | 337 W/m² | - |
| 1777574870 | 5° C | 45% | 1027.8 hPa | - | - | 338 W/m² | - |
| 1777574560 | 5° C | 43% | 1027.7 hPa | - | - | 337 W/m² | - |
| 1777574250 | 5.56° C | 43% | 1027.8 hPa | - | - | 337 W/m² | - |
| 1777573940 | 6.11° C | 40% | 1027.7 hPa | - | - | 337 W/m² | - |
| 1777573630 | 6.11° C | 40% | 1027.7 hPa | - | - | 337 W/m² | - |
| 1777573319 | 7.22° C | 38% | 1027.7 hPa | - | - | 337 W/m² | - |
| 1777573009 | 7.78° C | 37% | 1027.7 hPa | - | - | 337 W/m² | - |
| 1777572389 | 8.89° C | 35% | 1027.6 hPa | - | - | 337 W/m² | - |
| 1777571768 | 11.11° C | 34% | 1027.5 hPa | - | - | 337 W/m² | - |
* Rain since midnight (hover to see other rain measurements)
** Current wind speed in m/s (hover to see current wind gust speed)